createdAt,value
2023-12-14T00:02:42.803Z,12.98
2023-12-14T00:05:44.474Z,15.88
2023-12-14T00:08:46.202Z,13.02
2023-12-14T00:11:47.918Z,13.32
2023-12-14T00:14:49.625Z,14.00
2023-12-14T00:17:51.364Z,12.52
2023-12-14T00:20:53.780Z,13.07
2023-12-14T00:23:55.463Z,14.77
2023-12-14T00:26:57.130Z,14.30
2023-12-14T00:29:58.800Z,16.75
2023-12-14T00:33:00.579Z,20.12
2023-12-14T00:36:02.319Z,17.50
2023-12-14T00:39:04.021Z,16.08
2023-12-14T00:42:05.959Z,18.98
2023-12-14T00:45:08.226Z,23.35
2023-12-14T00:48:10.037Z,20.05
2023-12-14T00:51:11.872Z,23.52
2023-12-14T00:54:13.563Z,18.55
2023-12-14T00:57:15.237Z,23.73
2023-12-14T01:00:17.262Z,18.92
2023-12-14T01:03:19.007Z,19.77
2023-12-14T01:06:20.928Z,23.42
2023-12-14T01:09:22.590Z,22.95
2023-12-14T01:12:24.567Z,25.10
2023-12-14T01:15:26.318Z,27.48
2023-12-14T01:18:28.254Z,30.00
2023-12-14T01:21:30.046Z,31.60
2023-12-14T01:24:31.666Z,29.92
2023-12-14T01:27:33.353Z,29.77
2023-12-14T01:30:35.042Z,31.87
2023-12-14T01:33:36.797Z,32.55
2023-12-14T01:36:38.528Z,40.00
2023-12-14T01:39:40.203Z,37.85
2023-12-14T01:42:41.910Z,42.53
2023-12-14T01:45:43.573Z,39.67
2023-12-14T01:48:45.303Z,42.67
2023-12-14T01:51:46.987Z,38.22
2023-12-14T01:54:48.804Z,34.65
2023-12-14T01:57:50.502Z,40.60
2023-12-14T02:00:58.481Z,41.35
2023-12-14T02:04:00.923Z,34.67
2023-12-14T02:07:02.628Z,45.17
2023-12-14T02:10:04.676Z,32.28
2023-12-14T02:13:06.342Z,36.25
2023-12-14T02:16:08.472Z,33.63
2023-12-14T02:19:10.335Z,34.10
2023-12-14T02:22:12.171Z,32.78
2023-12-14T02:25:13.968Z,28.92
2023-12-14T02:28:15.678Z,30.65
2023-12-14T02:31:18.628Z,32.40
2023-12-14T02:34:21.878Z,29.87
2023-12-14T02:37:23.580Z,31.87
2023-12-14T02:40:25.248Z,26.75
2023-12-14T02:43:26.943Z,29.65
2023-12-14T02:46:28.605Z,29.45
2023-12-14T02:49:30.403Z,28.75
2023-12-14T02:52:32.149Z,29.40
2023-12-14T02:55:33.967Z,30.42
2023-12-14T02:58:35.727Z,24.92
2023-12-14T03:01:37.547Z,29.15
2023-12-14T03:04:42.616Z,26.42
2023-12-14T03:07:44.349Z,27.67
2023-12-14T03:10:46.051Z,29.30
2023-12-14T03:13:47.716Z,23.85
2023-12-14T03:16:50.212Z,28.75
2023-12-14T03:19:51.952Z,31.80
2023-12-14T03:22:53.797Z,27.83
2023-12-14T03:25:55.504Z,24.33
2023-12-14T03:28:57.246Z,30.00
2023-12-14T03:31:59.479Z,25.80
2023-12-14T03:35:01.156Z,25.73
2023-12-14T03:38:02.915Z,27.73
2023-12-14T03:41:05.013Z,24.85
2023-12-14T03:44:07.523Z,23.95
2023-12-14T03:47:09.289Z,21.20
2023-12-14T03:50:12.960Z,24.37
2023-12-14T03:53:14.760Z,23.23
2023-12-14T03:56:16.540Z,23.42
2023-12-14T03:59:18.281Z,21.98
2023-12-14T04:02:19.993Z,23.00
2023-12-14T04:05:21.878Z,25.10
2023-12-14T04:08:23.626Z,19.48
2023-12-14T04:11:25.407Z,20.52
2023-12-14T04:14:27.065Z,20.80
2023-12-14T04:17:28.928Z,18.17
2023-12-14T04:20:30.618Z,17.23
2023-12-14T04:23:32.263Z,16.00
2023-12-14T04:26:33.982Z,16.98
2023-12-14T04:29:35.868Z,15.52
2023-12-14T04:32:38.251Z,17.37
2023-12-14T04:35:39.971Z,15.25
2023-12-14T04:38:41.602Z,14.80
2023-12-14T04:41:43.590Z,18.70
2023-12-14T04:44:45.225Z,19.55
2023-12-14T04:47:46.934Z,21.42
2023-12-14T04:50:48.671Z,20.37
2023-12-14T04:53:50.305Z,21.15
2023-12-14T04:56:51.974Z,18.00
2023-12-14T04:59:53.680Z,18.80
2023-12-14T05:02:55.336Z,20.52
2023-12-14T05:05:57.904Z,19.23
2023-12-14T05:09:00.134Z,16.52
2023-12-14T05:12:01.801Z,15.82
2023-12-14T05:15:05.757Z,17.92
2023-12-14T05:18:07.498Z,17.40
2023-12-14T05:21:09.460Z,18.12
2023-12-14T05:24:11.116Z,16.62
2023-12-14T05:27:12.748Z,20.00
2023-12-14T05:30:14.659Z,20.48
2023-12-14T05:33:16.429Z,22.17
2023-12-14T05:36:18.143Z,24.77
2023-12-14T05:39:19.777Z,24.10
2023-12-14T05:42:21.491Z,23.60
2023-12-14T05:45:23.150Z,25.42
2023-12-14T05:48:25.446Z,23.00
2023-12-14T05:51:29.099Z,26.62
2023-12-14T05:54:31.061Z,32.10
2023-12-14T05:57:32.698Z,25.92
2023-12-14T06:00:35.931Z,25.80
2023-12-14T06:03:37.646Z,24.27
2023-12-14T06:06:40.843Z,28.38
2023-12-14T06:09:42.506Z,25.23
2023-12-14T06:12:44.174Z,25.12
2023-12-14T06:15:45.859Z,23.60
2023-12-14T06:18:48.095Z,27.98
2023-12-14T06:21:50.052Z,27.40
2023-12-14T06:24:51.762Z,27.62
2023-12-14T06:27:53.416Z,27.70
2023-12-14T06:30:55.110Z,27.52
2023-12-14T06:33:59.976Z,25.52
2023-12-14T06:37:04.094Z,29.87
2023-12-14T06:40:06.735Z,23.65
2023-12-14T06:43:08.442Z,25.17
2023-12-14T06:46:10.167Z,27.30
2023-12-14T06:49:11.943Z,29.98
2023-12-14T06:52:13.649Z,31.00
2023-12-14T06:55:16.110Z,29.33
2023-12-14T06:58:18.923Z,29.95
2023-12-14T07:01:20.764Z,29.95
2023-12-14T07:04:22.438Z,30.30
2023-12-14T07:07:24.059Z,31.83
2023-12-14T07:10:26.100Z,30.55
2023-12-14T07:13:27.754Z,32.35
2023-12-14T07:16:29.414Z,33.65
2023-12-14T07:19:31.076Z,36.70
2023-12-14T07:22:33.044Z,40.38
2023-12-14T07:25:34.904Z,39.83
2023-12-14T07:28:36.837Z,34.88
2023-12-14T07:31:38.651Z,35.70
2023-12-14T07:34:40.480Z,33.38
2023-12-14T07:37:42.287Z,31.92
2023-12-14T07:40:44.038Z,40.83
2023-12-14T07:43:45.826Z,35.95
2023-12-14T07:46:47.577Z,35.42
2023-12-14T07:49:49.313Z,40.80
2023-12-14T07:52:51.068Z,37.10
2023-12-14T07:55:52.856Z,34.58
2023-12-14T07:58:54.850Z,28.75
2023-12-14T08:01:56.616Z,34.65
2023-12-14T08:04:58.494Z,31.75
2023-12-14T08:08:00.849Z,37.33
2023-12-14T08:11:02.653Z,49.10
2023-12-14T08:14:04.819Z,44.78
2023-12-14T08:17:06.622Z,36.38
2023-12-14T08:20:10.197Z,30.58
2023-12-14T08:23:12.104Z,43.80
2023-12-14T08:26:14.387Z,30.23
2023-12-14T08:29:16.251Z,31.33
2023-12-14T08:32:18.062Z,34.28
2023-12-14T08:35:19.772Z,29.70
2023-12-14T08:38:21.620Z,31.80
2023-12-14T08:41:23.446Z,29.85
2023-12-14T08:44:25.174Z,28.95
2023-12-14T08:47:26.968Z,28.75
2023-12-14T08:50:28.629Z,28.75
2023-12-14T08:53:31.153Z,29.33
2023-12-14T08:56:33.118Z,32.80
2023-12-14T08:59:34.764Z,29.98
2023-12-14T09:02:37.282Z,34.90
2023-12-14T09:05:43.346Z,29.10
2023-12-14T09:08:45.843Z,29.33
2023-12-14T09:11:47.504Z,26.35
2023-12-14T09:14:49.144Z,30.77
2023-12-14T09:17:50.865Z,32.17
2023-12-14T09:20:52.617Z,28.90
2023-12-14T09:23:54.697Z,31.42
2023-12-14T09:26:56.346Z,28.00
2023-12-14T09:29:58.393Z,27.60
2023-12-14T09:33:00.171Z,27.33
2023-12-14T09:36:02.027Z,26.20
2023-12-14T09:39:04.312Z,27.23
2023-12-14T09:42:07.509Z,23.15
2023-12-14T09:45:10.531Z,28.23
2023-12-14T09:48:14.196Z,20.83
2023-12-14T09:51:17.330Z,22.70
2023-12-14T09:54:19.015Z,24.83
2023-12-14T09:57:21.365Z,24.83
2023-12-14T10:00:37.444Z,19.08
2023-12-14T10:03:39.144Z,21.25
2023-12-14T10:06:42.453Z,16.27
2023-12-14T10:09:44.227Z,20.45
2023-12-14T10:12:55.845Z,17.42
2023-12-14T10:15:57.441Z,18.00
2023-12-14T10:19:00.355Z,17.62
2023-12-14T10:22:03.065Z,17.77
2023-12-14T10:25:06.622Z,18.75
2023-12-14T10:28:09.041Z,17.37
2023-12-14T10:31:11.438Z,22.27
2023-12-14T10:34:14.537Z,19.45
2023-12-14T10:37:18.615Z,22.70
2023-12-14T10:40:21.855Z,20.67
2023-12-14T10:43:47.200Z,16.30
2023-12-14T10:46:49.871Z,18.87
2023-12-14T10:49:52.548Z,16.70
2023-12-14T10:52:54.679Z,16.25
2023-12-14T10:56:00.364Z,17.70
2023-12-14T10:59:02.316Z,18.50
2023-12-14T11:02:11.440Z,19.30
2023-12-14T11:05:17.190Z,16.40
2023-12-14T11:08:19.373Z,18.48
2023-12-14T11:11:22.092Z,17.35
2023-12-14T11:14:25.270Z,13.95
2023-12-14T11:17:27.082Z,16.60
2023-12-14T11:20:28.912Z,20.00
2023-12-14T11:23:40.513Z,16.15
2023-12-14T11:26:42.350Z,23.90
2023-12-14T11:29:44.100Z,18.77
2023-12-14T11:32:45.745Z,16.52
2023-12-14T11:35:47.486Z,18.08
2023-12-14T11:38:50.485Z,17.85
2023-12-14T11:42:09.669Z,17.45
2023-12-14T11:45:11.367Z,18.12
2023-12-14T11:48:14.201Z,18.33
2023-12-14T11:51:17.466Z,20.35
2023-12-14T11:54:19.157Z,23.50
2023-12-14T11:57:20.824Z,20.52
2023-12-14T12:00:27.138Z,22.05
2023-12-14T12:03:34.623Z,19.92
2023-12-14T12:09:41.995Z,18.17
2023-12-14T12:12:45.901Z,17.83
2023-12-14T12:15:48.720Z,18.73
2023-12-14T12:18:53.765Z,21.10
2023-12-14T12:21:55.583Z,19.58
2023-12-14T12:25:04.867Z,16.90
2023-12-14T12:28:13.839Z,16.92
2023-12-14T12:31:15.485Z,17.05
2023-12-14T12:34:17.401Z,19.25
2023-12-14T12:37:19.072Z,14.32
2023-12-14T12:40:22.170Z,13.77
2023-12-14T12:43:24.511Z,13.73
2023-12-14T12:46:26.340Z,17.35
2023-12-14T12:49:28.337Z,21.08
2023-12-14T12:52:30.038Z,17.83
2023-12-14T12:55:31.681Z,19.60
2023-12-14T12:58:33.292Z,24.50
2023-12-14T13:01:34.939Z,19.02
2023-12-14T13:04:38.297Z,28.27
2023-12-14T13:07:40.391Z,23.48
2023-12-14T13:10:42.194Z,18.48
2023-12-14T13:13:44.908Z,19.55
2023-12-14T13:16:47.289Z,16.85
2023-12-14T13:19:48.990Z,21.17
2023-12-14T13:22:51.092Z,19.50
2023-12-14T13:25:52.906Z,16.92
2023-12-14T13:28:55.045Z,15.65
2023-12-14T13:31:56.795Z,19.15
2023-12-14T13:34:58.478Z,19.65
2023-12-14T13:38:01.078Z,18.45
2023-12-14T13:41:06.776Z,16.27
2023-12-14T13:44:08.532Z,20.75
2023-12-14T13:47:10.274Z,18.50
2023-12-14T13:50:12.235Z,21.52
2023-12-14T13:53:15.017Z,21.92
2023-12-14T13:56:18.081Z,26.83
2023-12-14T13:59:20.670Z,19.87
2023-12-14T14:02:22.899Z,22.58
2023-12-14T14:05:24.879Z,21.62
2023-12-14T14:08:26.871Z,21.58
2023-12-14T14:11:28.649Z,20.52
2023-12-14T14:14:30.315Z,18.65
2023-12-14T14:17:32.000Z,25.42
2023-12-14T14:20:34.221Z,32.30
2023-12-14T14:23:36.219Z,42.90
2023-12-14T14:26:37.869Z,59.70
2023-12-14T14:29:39.556Z,67.25
2023-12-14T14:32:41.368Z,66.07
2023-12-14T14:35:43.150Z,55.40
2023-12-14T14:38:44.803Z,64.57
2023-12-14T14:41:46.620Z,93.65
2023-12-14T14:44:48.303Z,132.93
2023-12-14T14:47:50.145Z,75.03
2023-12-14T14:50:53.431Z,39.90
2023-12-14T14:53:55.156Z,22.08
2023-12-14T14:56:56.996Z,22.45
2023-12-14T14:59:58.684Z,27.42
2023-12-14T15:03:03.087Z,24.58
2023-12-14T15:06:05.095Z,27.45
2023-12-14T15:09:10.204Z,41.88
2023-12-14T15:12:12.181Z,40.90
2023-12-14T15:15:13.979Z,47.88
2023-12-14T15:18:15.888Z,38.03
2023-12-14T15:21:17.672Z,44.83
2023-12-14T15:24:19.383Z,45.22
2023-12-14T15:27:21.070Z,43.30
2023-12-14T15:30:22.839Z,30.90
2023-12-14T15:33:24.655Z,29.10
2023-12-14T15:36:26.350Z,28.60
2023-12-14T15:39:27.958Z,29.73
2023-12-14T15:42:29.664Z,27.00
2023-12-14T15:45:34.362Z,28.02
2023-12-14T15:48:37.645Z,33.58
2023-12-14T15:51:42.334Z,30.05
2023-12-14T15:54:44.240Z,29.65
2023-12-14T15:57:46.623Z,28.02
2023-12-14T16:00:48.328Z,44.13
2023-12-14T16:03:50.041Z,24.00
2023-12-14T16:06:52.017Z,27.17
2023-12-14T16:09:53.690Z,20.65
2023-12-14T16:12:55.363Z,23.10
2023-12-14T16:15:56.999Z,28.17
2023-12-14T16:18:58.673Z,32.08
2023-12-14T16:22:00.358Z,32.72
2023-12-14T16:25:02.205Z,32.65
2023-12-14T16:28:04.480Z,33.10
2023-12-14T16:31:07.215Z,24.20
2023-12-14T16:34:09.224Z,21.65
2023-12-14T16:37:10.965Z,24.20
2023-12-14T16:40:14.076Z,22.33
2023-12-14T16:43:20.212Z,27.90
2023-12-14T16:46:23.888Z,38.22
2023-12-14T16:49:25.511Z,31.15
2023-12-14T16:52:27.701Z,26.27
2023-12-14T16:55:29.866Z,24.83
2023-12-14T16:58:36.354Z,32.63
2023-12-14T17:01:40.827Z,40.22
2023-12-14T17:04:42.772Z,52.92
2023-12-14T17:07:44.592Z,30.67
2023-12-14T17:10:46.259Z,30.48
2023-12-14T17:13:47.942Z,36.70
2023-12-14T17:16:50.115Z,32.25
2023-12-14T17:19:51.821Z,29.25
2023-12-14T17:22:53.499Z,36.40
2023-12-14T17:25:55.292Z,49.75
2023-12-14T17:28:58.049Z,50.92
2023-12-14T17:31:59.886Z,25.55
2023-12-14T17:35:01.746Z,24.35
2023-12-14T17:38:03.598Z,27.08
2023-12-14T17:41:11.284Z,25.40
2023-12-14T17:44:13.436Z,25.98
2023-12-14T17:47:15.216Z,33.13
2023-12-14T17:50:17.268Z,33.15
2023-12-14T17:53:19.362Z,26.25
2023-12-14T17:56:22.593Z,37.55
2023-12-14T17:59:24.480Z,31.30
2023-12-14T18:02:26.191Z,28.55
2023-12-14T18:05:27.924Z,30.02
2023-12-14T18:08:29.744Z,24.85
2023-12-14T18:11:31.525Z,26.92
2023-12-14T18:14:33.321Z,29.52
2023-12-14T18:17:35.327Z,30.90
2023-12-14T18:20:37.460Z,42.13
2023-12-14T18:23:39.363Z,54.85
2023-12-14T18:26:41.481Z,46.47
2023-12-14T18:29:43.498Z,46.88
2023-12-14T18:32:47.944Z,40.53
2023-12-14T18:35:49.998Z,37.30
2023-12-14T18:38:52.071Z,29.05
2023-12-14T18:41:54.491Z,34.15
2023-12-14T18:44:56.665Z,37.58
2023-12-14T18:47:58.644Z,32.83
2023-12-14T18:51:03.420Z,34.00
2023-12-14T18:54:06.062Z,39.97
2023-12-14T18:57:08.170Z,44.60
2023-12-14T19:00:11.095Z,40.47
2023-12-14T19:03:13.102Z,43.25
2023-12-14T19:06:17.385Z,42.85
2023-12-14T19:09:20.887Z,42.55
2023-12-14T19:12:23.991Z,35.97
2023-12-14T19:15:26.172Z,35.10
2023-12-14T19:18:28.512Z,41.63
2023-12-14T19:21:31.136Z,38.40
2023-12-14T19:24:33.516Z,38.88
2023-12-14T19:27:37.271Z,35.05
2023-12-14T19:30:39.384Z,30.42
2023-12-14T19:33:41.953Z,29.37
2023-12-14T19:36:44.325Z,32.30
2023-12-14T19:39:47.154Z,32.22
2023-12-14T19:42:49.755Z,30.65
2023-12-14T19:45:52.161Z,30.23
2023-12-14T19:48:54.712Z,33.40
2023-12-14T19:51:58.975Z,34.05
2023-12-14T19:55:02.694Z,32.95
2023-12-14T19:58:05.268Z,33.22
2023-12-14T20:01:08.014Z,34.03
2023-12-14T20:04:11.806Z,33.42
2023-12-14T20:07:15.211Z,33.78
2023-12-14T20:10:17.435Z,40.60
2023-12-14T20:13:19.818Z,82.47
2023-12-14T20:16:22.137Z,67.18
2023-12-14T20:19:26.030Z,52.20
2023-12-14T20:22:28.394Z,50.15
2023-12-14T20:25:31.449Z,49.03
2023-12-14T20:28:33.934Z,50.65
2023-12-14T20:31:36.492Z,57.00
2023-12-14T20:34:38.707Z,52.05
2023-12-14T20:37:40.691Z,39.95
2023-12-14T20:40:42.543Z,48.55
2023-12-14T20:43:44.215Z,56.92
2023-12-14T20:46:45.962Z,52.28
2023-12-14T20:49:47.715Z,48.13
2023-12-14T20:52:49.658Z,48.00
2023-12-14T20:55:53.528Z,46.70
2023-12-14T20:58:55.908Z,45.17
2023-12-14T21:01:58.278Z,47.20
2023-12-14T21:05:00.235Z,50.00
2023-12-14T21:08:01.985Z,50.00
2023-12-14T21:11:03.759Z,54.78
2023-12-14T21:14:05.517Z,47.17
2023-12-14T21:17:07.334Z,43.35
2023-12-14T21:20:09.448Z,42.25
2023-12-14T21:23:11.201Z,38.20
2023-12-14T21:26:17.299Z,35.60
2023-12-14T21:29:19.144Z,33.13
2023-12-14T21:32:21.054Z,31.85
2023-12-14T21:35:22.875Z,33.20
2023-12-14T21:38:24.686Z,32.78
2023-12-14T21:41:26.493Z,30.08
2023-12-14T21:44:28.240Z,31.55
2023-12-14T21:47:31.021Z,34.67
2023-12-14T21:50:33.109Z,32.00
2023-12-14T21:53:34.890Z,30.40
2023-12-14T21:56:36.636Z,29.05
2023-12-14T21:59:38.289Z,27.62
2023-12-14T22:02:39.953Z,36.30
2023-12-14T22:05:41.870Z,35.70
2023-12-14T22:08:43.627Z,35.63
2023-12-14T22:11:45.941Z,40.30
2023-12-14T22:14:47.751Z,36.85
2023-12-14T22:17:49.540Z,40.40
2023-12-14T22:20:51.241Z,45.28
2023-12-14T22:23:52.938Z,49.15
2023-12-14T22:26:54.582Z,59.63
2023-12-14T22:29:56.274Z,51.60
2023-12-14T22:32:57.992Z,56.50
2023-12-14T22:35:59.714Z,58.50
2023-12-14T22:39:01.393Z,59.28
2023-12-14T22:42:03.110Z,53.47
2023-12-14T22:45:05.294Z,55.65
2023-12-14T22:48:06.970Z,57.83
2023-12-14T22:51:16.257Z,55.60
2023-12-14T22:54:17.934Z,55.97
2023-12-14T22:57:19.641Z,51.58
2023-12-14T23:00:25.600Z,58.55
2023-12-14T23:03:27.312Z,48.95
2023-12-14T23:06:29.536Z,51.30
2023-12-14T23:09:31.168Z,53.42
2023-12-14T23:12:33.431Z,49.13
2023-12-14T23:15:35.078Z,49.47
2023-12-14T23:18:36.888Z,49.22
2023-12-14T23:21:39.135Z,68.93
2023-12-14T23:24:40.774Z,44.30
2023-12-14T23:27:42.460Z,51.22
2023-12-14T23:30:44.151Z,47.47
2023-12-14T23:33:45.926Z,147.62
2023-12-14T23:36:47.657Z,44.53
2023-12-14T23:39:49.505Z,41.17
2023-12-14T23:42:51.147Z,52.15
2023-12-14T23:45:52.841Z,80.60
2023-12-14T23:48:54.775Z,132.05
2023-12-14T23:51:56.481Z,60.45
2023-12-14T23:54:58.256Z,106.12
2023-12-14T23:57:59.956Z,136.27
